Time;durP1;ratioP1;P1;durP2;ratioP2;P2;SDS_P1;SDS_P2;PMS_P1;PMS_P2;Temp;Humidity;BMP_temperature;BMP_pressure;BME280_temperature;BME280_humidity;BME280_pressure;Samples;Min_cycle;Max_cycle;Signal;HPM_P1;HPM_P2
2023/06/13 00:02:12;;;;;;;8.48;4.20;;;;;;;;;;5053552;28;20223;-57
2023/06/13 00:04:43;;;;;;;8.45;4.05;;;;;;;;;;5054956;28;20215;-58
2023/06/13 00:07:09;;;;;;;7.78;4.47;;;;;;;;;;5054192;28;20213;-57
2023/06/13 00:09:35;;;;;;;8.05;4.03;;;;;;;;;;5038036;28;20294;-58
2023/06/13 00:12:00;;;;;;;6.57;4.07;;;;;;;;;;5034926;28;20211;-57
2023/06/13 00:14:26;;;;;;;6.45;4.07;;;;;;;;;;5034500;28;20684;-58
2023/06/13 00:16:51;;;;;;;7.35;4.40;;;;;;;;;;5033916;28;20220;-57
2023/06/13 00:19:17;;;;;;;7.68;4.40;;;;;;;;;;5034240;28;20656;-58
2023/06/13 00:21:42;;;;;;;6.90;4.55;;;;;;;;;;5034644;28;20215;-58
2023/06/13 00:24:08;;;;;;;8.52;4.20;;;;;;;;;;5033535;28;20238;-58
2023/06/13 00:26:33;;;;;;;6.93;3.85;;;;;;;;;;5034462;28;20212;-58
2023/06/13 00:28:58;;;;;;;7.75;4.30;;;;;;;;;;5034641;28;20224;-58
2023/06/13 00:31:30;;;;;;;6.80;4.07;;;;;;;;;;5033070;28;20212;-58
2023/06/13 00:33:56;;;;;;;6.13;4.20;;;;;;;;;;5034432;28;20258;-58
2023/06/13 00:36:24;;;;;;;9.98;4.20;;;;;;;;;;5033178;28;20211;-58
2023/06/13 00:38:50;;;;;;;6.68;4.18;;;;;;;;;;5034088;28;20232;-58
2023/06/13 00:41:15;;;;;;;8.77;4.10;;;;;;;;;;5033921;28;20216;-58
2023/06/13 00:43:40;;;;;;;6.50;3.97;;;;;;;;;;5033394;28;20204;-58
2023/06/13 00:46:06;;;;;;;7.97;4.10;;;;;;;;;;5033733;28;20659;-58
2023/06/13 00:48:32;;;;;;;7.20;4.10;;;;;;;;;;5034131;28;20583;-57
2023/06/13 00:50:57;;;;;;;5.22;3.85;;;;;;;;;;5033426;28;20227;-58
2023/06/13 00:53:23;;;;;;;7.95;4.47;;;;;;;;;;5015515;28;20683;-58
2023/06/13 00:55:49;;;;;;;9.18;4.10;;;;;;;;;;5039426;28;20735;-58
2023/06/13 00:58:15;;;;;;;6.97;4.15;;;;;;;;;;5052553;28;20289;-57
2023/06/13 01:00:43;;;;;;;7.70;4.10;;;;;;;;;;5053791;28;20641;-58
2023/06/13 01:03:10;;;;;;;8.63;4.45;;;;;;;;;;5053321;28;20218;-57
2023/06/13 01:05:36;;;;;;;7.50;4.15;;;;;;;;;;5052996;28;20215;-57
2023/06/13 01:08:04;;;;;;;7.25;4.25;;;;;;;;;;5049718;28;20563;-57
2023/06/13 01:10:30;;;;;;;7.68;4.32;;;;;;;;;;5033499;28;20307;-57
2023/06/13 01:13:07;;;;;;;7.72;4.10;;;;;;;;;;5031473;28;20290;-58
2023/06/13 01:15:33;;;;;;;6.82;4.40;;;;;;;;;;5033214;28;20251;-57
2023/06/13 01:18:00;;;;;;;6.47;4.10;;;;;;;;;;5032114;28;20235;-58
2023/06/13 01:20:27;;;;;;;7.15;3.90;;;;;;;;;;5031246;28;20251;-57
2023/06/13 01:22:54;;;;;;;7.18;4.57;;;;;;;;;;5032062;28;20594;-58
2023/06/13 01:25:37;;;;;;;6.95;4.15;;;;;;;;;;5031132;28;20671;-57
2023/06/13 01:28:03;;;;;;;7.30;4.03;;;;;;;;;;5032854;28;20212;-57
2023/06/13 01:30:28;;;;;;;7.97;3.83;;;;;;;;;;5033591;28;20211;-58
2023/06/13 01:32:54;;;;;;;7.90;4.43;;;;;;;;;;5032418;28;20212;-57
2023/06/13 01:35:19;;;;;;;5.55;4.28;;;;;;;;;;5031761;28;20297;-58
2023/06/13 01:37:44;;;;;;;5.82;4.13;;;;;;;;;;5031979;28;20211;-57
2023/06/13 01:40:10;;;;;;;8.40;4.30;;;;;;;;;;5030503;28;20242;-57
2023/06/13 01:42:35;;;;;;;6.65;4.30;;;;;;;;;;5033099;28;20247;-57
2023/06/13 01:45:00;;;;;;;8.27;4.47;;;;;;;;;;5032995;28;20678;-55
2023/06/13 01:47:25;;;;;;;6.32;4.38;;;;;;;;;;5032256;28;20215;-57
2023/06/13 01:50:06;;;;;;;7.60;4.40;;;;;;;;;;5033136;28;20220;-57
2023/06/13 01:52:42;;;;;;;7.05;4.43;;;;;;;;;;5031281;28;20204;-57
2023/06/13 01:55:09;;;;;;;5.72;3.95;;;;;;;;;;5031621;28;20243;-57
2023/06/13 01:57:36;;;;;;;9.52;4.43;;;;;;;;;;5011727;28;20239;-57
2023/06/13 02:00:02;;;;;;;8.55;4.45;;;;;;;;;;5011473;28;20224;-56
2023/06/13 02:02:28;;;;;;;8.40;4.07;;;;;;;;;;5012162;28;20671;-57
2023/06/13 02:04:54;;;;;;;7.70;4.22;;;;;;;;;;5013004;28;20223;-57
2023/06/13 02:07:19;;;;;;;7.90;4.40;;;;;;;;;;5012414;28;20221;-57
2023/06/13 02:09:45;;;;;;;8.90;4.55;;;;;;;;;;5047042;28;20302;-57
2023/06/13 02:12:10;;;;;;;6.18;4.15;;;;;;;;;;5052177;28;20260;-57
2023/06/13 02:14:36;;;;;;;7.40;4.22;;;;;;;;;;5047762;28;20207;-57
2023/06/13 02:17:01;;;;;;;6.80;4.13;;;;;;;;;;5031934;28;20581;-56
2023/06/13 02:19:27;;;;;;;8.32;4.78;;;;;;;;;;5032182;28;20239;-58
2023/06/13 02:21:53;;;;;;;7.85;4.75;;;;;;;;;;5031004;28;20216;-57
2023/06/13 02:24:18;;;;;;;7.47;4.60;;;;;;;;;;5031471;28;20223;-57
2023/06/13 02:26:44;;;;;;;7.88;4.22;;;;;;;;;;5032298;28;20585;-57
2023/06/13 02:29:09;;;;;;;16.80;4.75;;;;;;;;;;5031131;28;20212;-56
2023/06/13 02:31:38;;;;;;;7.90;4.18;;;;;;;;;;5032225;28;20215;-57
2023/06/13 02:34:03;;;;;;;9.90;4.63;;;;;;;;;;5031650;28;20250;-57
2023/06/13 02:36:30;;;;;;;13.70;4.75;;;;;;;;;;5031401;28;20751;-57
2023/06/13 02:38:55;;;;;;;8.05;5.07;;;;;;;;;;5032043;28;20662;-58
2023/06/13 02:41:20;;;;;;;11.18;4.90;;;;;;;;;;5031642;28;20346;-57
2023/06/13 02:43:45;;;;;;;8.45;4.60;;;;;;;;;;5031265;28;20242;-57
2023/06/13 02:46:11;;;;;;;9.82;4.88;;;;;;;;;;5031682;28;20235;-58
2023/06/13 02:48:36;;;;;;;7.32;4.75;;;;;;;;;;5031907;28;20292;-57
2023/06/13 02:51:02;;;;;;;10.43;4.85;;;;;;;;;;5030599;28;20270;-57
2023/06/13 02:53:27;;;;;;;16.42;5.30;;;;;;;;;;5031756;28;20224;-57
2023/06/13 02:55:54;;;;;;;11.30;4.78;;;;;;;;;;5037702;28;20237;-57
2023/06/13 02:58:20;;;;;;;8.25;4.72;;;;;;;;;;5050469;28;20239;-58
2023/06/13 03:00:45;;;;;;;8.60;5.05;;;;;;;;;;5051859;28;20243;-57
2023/06/13 03:03:11;;;;;;;8.60;5.13;;;;;;;;;;5051306;28;20678;-57
2023/06/13 03:05:36;;;;;;;8.68;5.07;;;;;;;;;;5050866;28;20215;-57
2023/06/13 03:08:02;;;;;;;8.60;5.10;;;;;;;;;;5047780;28;20214;-56
2023/06/13 03:10:27;;;;;;;8.65;5.40;;;;;;;;;;5031720;28;20302;-57
2023/06/13 03:12:52;;;;;;;7.10;5.00;;;;;;;;;;5030959;28;20353;-57
2023/06/13 03:15:18;;;;;;;12.38;5.32;;;;;;;;;;5030920;28;20204;-56
2023/06/13 03:17:44;;;;;;;9.23;5.32;;;;;;;;;;5031865;28;20207;-57
2023/06/13 03:20:10;;;;;;;7.60;5.35;;;;;;;;;;5029998;28;20236;-57
2023/06/13 03:22:35;;;;;;;9.38;5.43;;;;;;;;;;5031637;28;20601;-57
2023/06/13 03:25:06;;;;;;;53.83;8.20;;;;;;;;;;5030357;28;20218;-57
2023/06/13 03:27:32;;;;;;;98.65;11.90;;;;;;;;;;5031572;28;20314;-57
2023/06/13 03:29:57;;;;;;;9.38;5.10;;;;;;;;;;5010385;28;20385;-57
2023/06/13 03:32:22;;;;;;;10.27;5.30;;;;;;;;;;5018177;28;20929;-58
2023/06/13 03:34:47;;;;;;;7.13;5.10;;;;;;;;;;5004695;28;20298;-58
2023/06/13 03:37:14;;;;;;;9.73;5.15;;;;;;;;;;5005944;28;21058;-57
2023/06/13 03:39:39;;;;;;;11.43;5.25;;;;;;;;;;5015512;28;20314;-58
2023/06/13 03:42:05;;;;;;;11.18;5.38;;;;;;;;;;5016364;28;20748;-57
2023/06/13 03:44:30;;;;;;;11.48;5.40;;;;;;;;;;5011754;28;20723;-58
2023/06/13 03:46:55;;;;;;;85.15;10.73;;;;;;;;;;5020098;28;20230;-58
2023/06/13 03:49:21;;;;;;;10.52;5.60;;;;;;;;;;5025016;28;20215;-58
2023/06/13 03:51:47;;;;;;;8.13;5.20;;;;;;;;;;5024855;28;20211;-58
2023/06/13 03:54:12;;;;;;;8.65;5.30;;;;;;;;;;5024447;28;20274;-58
2023/06/13 03:56:37;;;;;;;7.90;5.70;;;;;;;;;;5013235;28;20240;-58
2023/06/13 03:59:03;;;;;;;8.63;5.80;;;;;;;;;;5001899;28;20259;-57
2023/06/13 04:01:28;;;;;;;8.57;5.13;;;;;;;;;;4997190;28;20220;-58
2023/06/13 04:03:54;;;;;;;16.45;5.43;;;;;;;;;;5001760;28;20220;-58
2023/06/13 04:06:19;;;;;;;7.68;4.85;;;;;;;;;;5000463;28;20229;-58
2023/06/13 04:08:44;;;;;;;9.93;5.53;;;;;;;;;;5016638;28;20579;-58
2023/06/13 04:11:10;;;;;;;10.70;5.45;;;;;;;;;;5024518;28;20227;-57
2023/06/13 04:13:35;;;;;;;8.93;5.70;;;;;;;;;;5024639;28;20211;-58
2023/06/13 04:16:00;;;;;;;12.10;5.50;;;;;;;;;;5009245;28;20228;-56
2023/06/13 04:18:26;;;;;;;8.18;5.60;;;;;;;;;;5005123;28;20239;-57
2023/06/13 04:20:52;;;;;;;11.48;5.50;;;;;;;;;;5004558;28;20232;-58
2023/06/13 04:23:18;;;;;;;12.25;5.57;;;;;;;;;;5015573;28;20204;-57
2023/06/13 04:25:44;;;;;;;9.43;5.35;;;;;;;;;;5017031;28;20443;-58
2023/06/13 04:28:12;;;;;;;7.70;5.13;;;;;;;;;;5016627;28;20208;-57
2023/06/13 04:30:40;;;;;;;8.98;5.43;;;;;;;;;;5024340;28;20230;-58
2023/06/13 04:33:13;;;;;;;7.82;5.47;;;;;;;;;;5023744;28;20266;-57
2023/06/13 04:35:44;;;;;;;10.90;6.15;;;;;;;;;;5023859;28;20208;-58
2023/06/13 04:38:11;;;;;;;7.68;5.50;;;;;;;;;;5008825;28;20248;-57
2023/06/13 04:40:37;;;;;;;12.95;5.45;;;;;;;;;;5004842;28;20351;-57
2023/06/13 04:43:04;;;;;;;12.27;5.85;;;;;;;;;;5003784;28;20332;-58
2023/06/13 04:45:30;;;;;;;7.88;5.20;;;;;;;;;;4997585;28;20216;-58
2023/06/13 04:47:57;;;;;;;8.02;5.13;;;;;;;;;;5015456;28;20582;-58
2023/06/13 04:50:25;;;;;;;9.20;5.75;;;;;;;;;;5015185;28;20219;-58
2023/06/13 04:52:53;;;;;;;7.50;5.05;;;;;;;;;;5023387;28;20286;-58
2023/06/13 04:55:21;;;;;;;9.57;5.57;;;;;;;;;;5022936;28;20709;-58
2023/06/13 04:57:46;;;;;;;9.90;5.60;;;;;;;;;;5005459;28;20260;-58
2023/06/13 05:00:12;;;;;;;206.85;20.48;;;;;;;;;;5023345;28;20255;-58
2023/06/13 05:02:38;;;;;;;13.88;5.40;;;;;;;;;;5023994;28;20301;-58
2023/06/13 05:05:04;;;;;;;16.88;5.72;;;;;;;;;;5022910;28;20838;-58
2023/06/13 05:07:30;;;;;;;7.20;5.07;;;;;;;;;;5018819;28;20295;-58
2023/06/13 05:09:55;;;;;;;11.65;5.07;;;;;;;;;;4997573;28;20207;-58
2023/06/13 05:12:22;;;;;;;11.75;5.50;;;;;;;;;;4996362;28;20397;-58
2023/06/13 05:14:47;;;;;;;8.23;5.47;;;;;;;;;;5012808;28;20262;-58
2023/06/13 05:17:14;;;;;;;7.28;5.70;;;;;;;;;;5013453;28;20216;-59
2023/06/13 05:19:40;;;;;;;10.68;5.97;;;;;;;;;;5013022;28;20370;-58
2023/06/13 05:22:05;;;;;;;8.75;5.38;;;;;;;;;;5013269;28;20620;-58
2023/06/13 05:24:31;;;;;;;9.32;5.43;;;;;;;;;;5012072;28;20413;-59
2023/06/13 05:26:56;;;;;;;9.88;5.32;;;;;;;;;;5016055;28;20809;-60
2023/06/13 05:29:22;;;;;;;13.15;5.30;;;;;;;;;;5033225;28;20247;-59
2023/06/13 05:31:47;;;;;;;8.52;5.55;;;;;;;;;;5021130;28;20783;-59
2023/06/13 05:34:13;;;;;;;10.95;5.53;;;;;;;;;;5023525;28;20576;-59
2023/06/13 05:36:39;;;;;;;7.63;5.10;;;;;;;;;;5024735;28;20215;-58
2023/06/13 05:39:04;;;;;;;11.40;5.50;;;;;;;;;;5012303;28;20232;-59
2023/06/13 05:41:29;;;;;;;7.38;5.10;;;;;;;;;;5013622;28;20296;-59
2023/06/13 05:43:55;;;;;;;9.52;5.40;;;;;;;;;;5020115;28;20574;-59
2023/06/13 05:46:20;;;;;;;8.38;5.57;;;;;;;;;;5031712;28;20572;-59
2023/06/13 05:48:46;;;;;;;8.32;5.78;;;;;;;;;;5033213;28;20619;-59
2023/06/13 05:51:11;;;;;;;10.55;5.88;;;;;;;;;;5032592;28;20219;-59
2023/06/13 05:53:36;;;;;;;8.93;6.07;;;;;;;;;;5031553;28;20424;-59
2023/06/13 05:56:02;;;;;;;11.00;5.75;;;;;;;;;;5031083;28;20215;-57
2023/06/13 05:58:27;;;;;;;8.43;6.00;;;;;;;;;;5022403;28;20219;-58
2023/06/13 06:00:53;;;;;;;9.32;5.80;;;;;;;;;;5019108;28;20743;-58
2023/06/13 06:03:18;;;;;;;8.15;5.53;;;;;;;;;;5035481;28;20554;-58
2023/06/13 06:05:44;;;;;;;20.27;6.50;;;;;;;;;;5052382;28;20319;-57
2023/06/13 06:08:09;;;;;;;11.20;5.93;;;;;;;;;;5046829;28;20211;-57
2023/06/13 06:10:34;;;;;;;7.85;5.90;;;;;;;;;;5032505;28;20294;-58
2023/06/13 06:13:00;;;;;;;8.55;5.55;;;;;;;;;;5037359;28;20212;-58
2023/06/13 06:15:25;;;;;;;9.00;5.25;;;;;;;;;;5028335;28;20350;-58
2023/06/13 06:17:51;;;;;;;12.48;5.65;;;;;;;;;;5026941;28;20215;-57
2023/06/13 06:20:17;;;;;;;9.38;5.30;;;;;;;;;;5031102;28;20358;-57
2023/06/13 06:22:42;;;;;;;8.68;5.25;;;;;;;;;;5024361;28;20238;-58
2023/06/13 06:25:12;;;;;;;11.07;5.80;;;;;;;;;;5031297;28;20221;-56
2023/06/13 06:27:37;;;;;;;20.63;6.15;;;;;;;;;;5032268;28;20215;-58
2023/06/13 06:30:04;;;;;;;10.70;5.38;;;;;;;;;;5030524;28;20261;-57
2023/06/13 06:32:30;;;;;;;7.88;5.15;;;;;;;;;;5032111;28;20270;-57
2023/06/13 06:34:55;;;;;;;9.27;5.53;;;;;;;;;;5031426;28;20582;-58
2023/06/13 06:37:21;;;;;;;10.65;5.40;;;;;;;;;;5031534;28;20306;-58
2023/06/13 06:39:46;;;;;;;9.40;5.45;;;;;;;;;;5028696;28;20310;-57
2023/06/13 06:42:11;;;;;;;7.45;5.07;;;;;;;;;;5030397;28;20330;-57
2023/06/13 06:44:37;;;;;;;17.55;6.45;;;;;;;;;;5031651;28;20212;-58
2023/06/13 06:47:02;;;;;;;8.35;4.95;;;;;;;;;;5030479;28;20211;-57
2023/06/13 06:49:27;;;;;;;9.63;4.90;;;;;;;;;;5030673;28;20208;-58
2023/06/13 06:51:53;;;;;;;10.10;5.57;;;;;;;;;;5031255;28;20219;-58
2023/06/13 06:54:18;;;;;;;8.05;5.15;;;;;;;;;;5030493;28;20291;-58
2023/06/13 06:56:43;;;;;;;10.55;5.30;;;;;;;;;;5033070;28;20232;-58
2023/06/13 06:59:09;;;;;;;6.75;4.72;;;;;;;;;;5030706;28;20274;-57
2023/06/13 07:01:35;;;;;;;7.72;4.85;;;;;;;;;;5030438;28;20682;-58
2023/06/13 07:04:02;;;;;;;8.90;4.88;;;;;;;;;;5037653;28;20207;-56
2023/06/13 07:06:27;;;;;;;8.52;4.80;;;;;;;;;;5039642;28;20212;-58
2023/06/13 07:08:53;;;;;;;12.55;4.70;;;;;;;;;;5020385;28;20227;-58
2023/06/13 07:11:18;;;;;;;10.40;5.05;;;;;;;;;;5018333;28;20216;-58
2023/06/13 07:13:43;;;;;;;9.32;4.28;;;;;;;;;;5022297;28;20219;-59
2023/06/13 07:16:09;;;;;;;9.40;4.60;;;;;;;;;;5019870;28;20204;-58
2023/06/13 07:18:35;;;;;;;12.60;5.38;;;;;;;;;;5020241;28;20572;-58
2023/06/13 07:21:00;;;;;;;11.23;4.80;;;;;;;;;;5022386;28;20266;-58
2023/06/13 07:23:26;;;;;;;6.75;4.47;;;;;;;;;;5025710;28;20211;-58
2023/06/13 07:25:51;;;;;;;10.20;4.60;;;;;;;;;;5021933;28;20278;-58
2023/06/13 07:28:16;;;;;;;10.07;5.03;;;;;;;;;;5023316;28;20200;-58
2023/06/13 07:30:41;;;;;;;7.97;4.82;;;;;;;;;;5031421;28;20211;-58
2023/06/13 07:33:07;;;;;;;9.65;4.75;;;;;;;;;;5028773;28;20218;-58
2023/06/13 07:35:32;;;;;;;9.38;5.25;;;;;;;;;;5031653;28;20207;-59
2023/06/13 07:37:58;;;;;;;10.65;4.43;;;;;;;;;;5031519;28;20215;-59
2023/06/13 07:40:24;;;;;;;12.38;4.70;;;;;;;;;;5030224;28;20223;-58
2023/06/13 07:42:49;;;;;;;7.40;4.55;;;;;;;;;;5031304;28;20216;-58
2023/06/13 07:45:15;;;;;;;44.63;8.00;;;;;;;;;;5030009;28;20693;-58
2023/06/13 07:47:40;;;;;;;10.65;5.20;;;;;;;;;;5031316;28;20277;-59
2023/06/13 07:50:06;;;;;;;8.38;4.50;;;;;;;;;;5031058;28;20253;-58
2023/06/13 07:52:31;;;;;;;11.90;4.60;;;;;;;;;;5030629;28;20298;-59
2023/06/13 07:54:57;;;;;;;9.63;4.63;;;;;;;;;;5031349;28;20204;-59
2023/06/13 07:57:22;;;;;;;10.73;4.53;;;;;;;;;;5048737;28;20558;-59
2023/06/13 07:59:48;;;;;;;6.82;4.35;;;;;;;;;;5050158;28;20261;-59
2023/06/13 08:02:13;;;;;;;12.18;4.60;;;;;;;;;;5050660;28;20234;-58
2023/06/13 08:04:38;;;;;;;12.98;4.60;;;;;;;;;;5051254;28;20573;-58
2023/06/13 08:07:04;;;;;;;6.32;4.15;;;;;;;;;;5049983;28;20654;-57
2023/06/13 08:09:29;;;;;;;12.27;4.43;;;;;;;;;;5034375;28;20215;-58
2023/06/13 08:11:55;;;;;;;7.40;4.50;;;;;;;;;;5030950;28;20270;-59
2023/06/13 08:14:20;;;;;;;9.43;4.18;;;;;;;;;;5026530;28;20215;-59
2023/06/13 08:16:46;;;;;;;12.73;4.50;;;;;;;;;;5029226;28;20215;-59
2023/06/13 08:19:12;;;;;;;7.88;4.40;;;;;;;;;;5036636;28;20553;-59
2023/06/13 08:21:37;;;;;;;9.25;4.10;;;;;;;;;;5052619;28;20214;-59
2023/06/13 08:24:03;;;;;;;11.93;4.25;;;;;;;;;;5040399;28;20705;-58
2023/06/13 08:26:32;;;;;;;32.38;6.07;;;;;;;;;;5033804;28;20220;-60
2023/06/13 08:28:58;;;;;;;7.90;4.22;;;;;;;;;;5033175;28;20219;-59
2023/06/13 08:31:23;;;;;;;12.00;4.00;;;;;;;;;;5034147;28;20613;-59
2023/06/13 08:33:50;;;;;;;5.82;3.85;;;;;;;;;;5044659;28;20215;-60
2023/06/13 08:36:16;;;;;;;7.20;3.85;;;;;;;;;;5053255;28;20294;-59
2023/06/13 08:38:42;;;;;;;12.23;4.55;;;;;;;;;;5054085;28;20342;-60
2023/06/13 08:41:07;;;;;;;7.22;3.90;;;;;;;;;;5053772;28;20215;-59
2023/06/13 08:43:32;;;;;;;8.52;3.97;;;;;;;;;;5053015;28;20666;-60
2023/06/13 08:45:58;;;;;;;6.22;3.70;;;;;;;;;;5054197;28;20215;-60
2023/06/13 08:48:23;;;;;;;6.25;3.65;;;;;;;;;;5053536;28;20294;-60
2023/06/13 08:50:48;;;;;;;10.77;4.32;;;;;;;;;;5053471;28;20277;-60
2023/06/13 08:53:14;;;;;;;9.05;3.65;;;;;;;;;;5053520;28;20576;-60
2023/06/13 08:55:40;;;;;;;7.15;4.00;;;;;;;;;;5028358;28;20211;-60
2023/06/13 08:58:06;;;;;;;11.45;3.95;;;;;;;;;;5030166;28;20216;-58
2023/06/13 09:00:35;;;;;;;7.43;4.05;;;;;;;;;;5032620;28;20228;-60
2023/06/13 09:03:00;;;;;;;9.10;3.80;;;;;;;;;;5033256;28;20210;-58
2023/06/13 09:05:26;;;;;;;32.65;5.95;;;;;;;;;;5033824;28;20629;-60
2023/06/13 09:07:51;;;;;;;11.98;4.03;;;;;;;;;;5034402;28;20216;-60
2023/06/13 09:10:16;;;;;;;8.48;3.75;;;;;;;;;;5051014;28;20230;-60
2023/06/13 09:12:42;;;;;;;5.72;3.85;;;;;;;;;;5052305;28;20681;-60
2023/06/13 09:15:08;;;;;;;7.43;3.58;;;;;;;;;;5044597;28;20212;-60
2023/06/13 09:17:33;;;;;;;7.93;3.92;;;;;;;;;;5032842;28;20223;-60
2023/06/13 09:19:59;;;;;;;8.55;4.03;;;;;;;;;;5033303;28;20572;-60
2023/06/13 09:22:26;;;;;;;6.88;3.75;;;;;;;;;;5033151;28;20301;-60
2023/06/13 09:24:51;;;;;;;7.03;3.80;;;;;;;;;;5032468;28;20208;-60
2023/06/13 09:27:17;;;;;;;8.63;3.90;;;;;;;;;;5033124;28;20223;-60
2023/06/13 09:29:42;;;;;;;8.45;3.85;;;;;;;;;;5031675;28;20294;-60
2023/06/13 09:32:10;;;;;;;9.52;4.30;;;;;;;;;;5031769;28;20584;-60
2023/06/13 09:34:37;;;;;;;8.00;4.05;;;;;;;;;;5031814;28;20285;-59
2023/06/13 09:37:02;;;;;;;7.95;3.88;;;;;;;;;;5032928;28;20671;-60
2023/06/13 09:39:28;;;;;;;9.77;4.13;;;;;;;;;;5031009;28;20250;-60
2023/06/13 09:41:55;;;;;;;7.25;4.35;;;;;;;;;;5032010;28;20682;-60
2023/06/13 09:44:21;;;;;;;8.05;4.00;;;;;;;;;;5030943;28;20222;-60
2023/06/13 09:46:47;;;;;;;13.20;4.28;;;;;;;;;;5032188;28;20299;-60
2023/06/13 09:49:12;;;;;;;12.90;4.43;;;;;;;;;;5031258;28;20306;-60
2023/06/13 09:51:39;;;;;;;6.55;4.20;;;;;;;;;;5031502;28;20226;-60
2023/06/13 09:54:04;;;;;;;6.35;3.83;;;;;;;;;;5030513;28;20583;-60
2023/06/13 09:56:30;;;;;;;8.23;4.10;;;;;;;;;;5032498;28;20722;-60
2023/06/13 09:58:55;;;;;;;9.18;4.15;;;;;;;;;;5031687;28;20231;-60
2023/06/13 10:01:20;;;;;;;9.55;4.00;;;;;;;;;;5032224;28;20223;-60
2023/06/13 10:03:46;;;;;;;12.02;4.70;;;;;;;;;;5032632;28;20675;-60
2023/06/13 10:06:11;;;;;;;22.10;4.82;;;;;;;;;;5031428;28;20214;-60
2023/06/13 10:08:37;;;;;;;10.55;4.43;;;;;;;;;;5040639;28;20234;-61
2023/06/13 10:11:06;;;;;;;8.07;4.30;;;;;;;;;;5052105;28;20297;-60
2023/06/13 10:13:32;;;;;;;10.15;4.13;;;;;;;;;;5051721;28;20211;-60
2023/06/13 10:15:57;;;;;;;9.75;4.40;;;;;;;;;;5037294;28;20529;-60
2023/06/13 10:18:25;;;;;;;9.60;4.47;;;;;;;;;;5032147;28;20208;-60
2023/06/13 10:20:50;;;;;;;6.97;4.20;;;;;;;;;;5030075;28;20235;-61
2023/06/13 10:23:18;;;;;;;9.77;4.68;;;;;;;;;;5031972;28;20566;-60
2023/06/13 10:25:43;;;;;;;7.68;4.40;;;;;;;;;;5032160;28;20330;-61
2023/06/13 10:28:22;;;;;;;21.40;4.80;;;;;;;;;;5029545;28;20663;-60
2023/06/13 10:30:49;;;;;;;7.30;4.35;;;;;;;;;;5030586;28;20239;-60
2023/06/13 10:33:18;;;;;;;10.15;4.53;;;;;;;;;;5031999;28;20585;-59
2023/06/13 10:35:44;;;;;;;12.80;4.50;;;;;;;;;;5029902;28;20301;-60
2023/06/13 10:38:14;;;;;;;10.00;4.63;;;;;;;;;;5025711;28;20260;-60
2023/06/13 10:40:51;;;;;;;6.07;3.97;;;;;;;;;;5026225;28;20232;-60
2023/06/13 10:43:18;;;;;;;17.15;4.47;;;;;;;;;;5028874;28;20216;-60
2023/06/13 10:45:44;;;;;;;26.60;5.43;;;;;;;;;;5030601;28;20674;-59
2023/06/13 10:48:09;;;;;;;13.18;4.45;;;;;;;;;;5030805;28;20303;-59
2023/06/13 10:50:41;;;;;;;8.88;4.15;;;;;;;;;;5031846;28;20223;-59
2023/06/13 10:53:09;;;;;;;6.95;4.43;;;;;;;;;;5031518;28;20215;-59
2023/06/13 10:55:36;;;;;;;8.65;4.60;;;;;;;;;;5034032;28;20202;-60
2023/06/13 10:58:01;;;;;;;6.10;4.13;;;;;;;;;;5052069;28;20245;-59
2023/06/13 11:00:27;;;;;;;7.85;4.28;;;;;;;;;;5050101;28;20227;-59
2023/06/13 11:02:57;;;;;;;7.15;4.40;;;;;;;;;;5051074;28;20215;-59
2023/06/13 11:05:22;;;;;;;8.02;4.90;;;;;;;;;;5051261;28;20211;-59
2023/06/13 11:07:47;;;;;;;8.60;4.53;;;;;;;;;;5050332;28;20221;-60
2023/06/13 11:10:13;;;;;;;9.13;4.35;;;;;;;;;;5030554;28;20636;-61
2023/06/13 11:12:39;;;;;;;8.85;4.75;;;;;;;;;;5031945;28;20254;-60
2023/06/13 11:15:04;;;;;;;12.35;4.57;;;;;;;;;;5029689;28;20211;-60
2023/06/13 11:17:30;;;;;;;8.05;4.13;;;;;;;;;;5030907;28;20211;-60
2023/06/13 11:19:56;;;;;;;8.68;4.57;;;;;;;;;;5032206;28;20234;-60
2023/06/13 11:22:21;;;;;;;6.35;4.38;;;;;;;;;;5031472;28;20212;-61
2023/06/13 11:24:47;;;;;;;25.80;5.25;;;;;;;;;;5031253;28;20214;-60
2023/06/13 11:27:13;;;;;;;6.68;4.60;;;;;;;;;;5031534;28;20233;-61
2023/06/13 11:29:39;;;;;;;7.80;4.30;;;;;;;;;;5030951;28;20211;-60
2023/06/13 11:32:08;;;;;;;11.80;4.80;;;;;;;;;;5030525;28;20231;-60
2023/06/13 11:34:33;;;;;;;8.93;4.13;;;;;;;;;;5032028;28;20254;-60
2023/06/13 11:37:04;;;;;;;6.93;4.55;;;;;;;;;;5031829;28;20211;-60
2023/06/13 11:39:30;;;;;;;12.60;4.85;;;;;;;;;;5030897;28;20220;-60
2023/06/13 11:41:57;;;;;;;6.65;4.32;;;;;;;;;;5031915;28;20238;-61
2023/06/13 11:44:22;;;;;;;9.85;4.90;;;;;;;;;;5030732;28;20220;-60
2023/06/13 11:46:47;;;;;;;13.68;4.70;;;;;;;;;;5031680;28;20218;-60
2023/06/13 11:49:14;;;;;;;6.97;4.25;;;;;;;;;;5031609;28;20295;-60
2023/06/13 11:51:39;;;;;;;7.50;4.18;;;;;;;;;;5031051;28;20223;-60
2023/06/13 11:54:05;;;;;;;8.13;4.28;;;;;;;;;;5031443;28;20212;-60
2023/06/13 11:56:34;;;;;;;10.13;4.38;;;;;;;;;;5046500;28;20211;-60
2023/06/13 11:58:59;;;;;;;9.35;4.88;;;;;;;;;;5054782;28;20215;-60
2023/06/13 12:01:26;;;;;;;12.95;4.32;;;;;;;;;;5054854;28;20210;-60
2023/06/13 12:03:52;;;;;;;7.57;4.35;;;;;;;;;;5055417;28;20219;-61
2023/06/13 12:06:18;;;;;;;6.65;4.50;;;;;;;;;;5054131;28;20345;-60
2023/06/13 12:08:45;;;;;;;8.43;4.85;;;;;;;;;;5046303;28;20578;-61
2023/06/13 12:11:11;;;;;;;7.22;4.40;;;;;;;;;;5033771;28;20210;-60
2023/06/13 12:13:36;;;;;;;8.15;4.60;;;;;;;;;;5034748;28;20219;-60
2023/06/13 12:16:02;;;;;;;8.35;4.30;;;;;;;;;;5034569;28;20216;-60
2023/06/13 12:18:28;;;;;;;21.02;5.13;;;;;;;;;;5034014;28;20212;-60
2023/06/13 12:20:53;;;;;;;7.88;4.57;;;;;;;;;;5034175;28;20290;-60
2023/06/13 12:23:19;;;;;;;27.02;5.50;;;;;;;;;;5034723;28;20627;-60
2023/06/13 12:25:45;;;;;;;5.65;4.40;;;;;;;;;;5035068;28;20223;-60
2023/06/13 12:28:15;;;;;;;5.93;4.50;;;;;;;;;;5032554;28;20266;-60
2023/06/13 12:30:41;;;;;;;9.15;4.72;;;;;;;;;;5033893;28;20575;-60
2023/06/13 12:33:06;;;;;;;6.20;4.53;;;;;;;;;;5034416;28;20212;-60
2023/06/13 12:35:32;;;;;;;6.32;4.70;;;;;;;;;;5034226;28;20215;-60
2023/06/13 12:37:58;;;;;;;8.45;4.65;;;;;;;;;;5033839;28;20618;-60
2023/06/13 12:40:29;;;;;;;96.18;11.43;;;;;;;;;;5034461;28;20264;-60
2023/06/13 12:42:56;;;;;;;6.55;4.78;;;;;;;;;;5034367;28;20702;-60
2023/06/13 12:45:21;;;;;;;9.38;4.50;;;;;;;;;;5034000;28;20212;-60
2023/06/13 12:47:46;;;;;;;8.13;4.97;;;;;;;;;;5033567;28;20219;-60
2023/06/13 12:50:12;;;;;;;8.73;4.50;;;;;;;;;;5034164;28;20211;-60
2023/06/13 12:52:38;;;;;;;9.63;5.00;;;;;;;;;;5034500;28;20222;-60
2023/06/13 12:55:04;;;;;;;11.93;5.40;;;;;;;;;;5033292;28;20294;-60
2023/06/13 12:57:29;;;;;;;10.30;4.95;;;;;;;;;;5053309;28;20433;-60
2023/06/13 12:59:56;;;;;;;17.80;4.78;;;;;;;;;;5053315;28;20226;-60
2023/06/13 13:02:23;;;;;;;9.45;4.63;;;;;;;;;;5053221;28;20211;-60
2023/06/13 13:04:57;;;;;;;9.00;5.13;;;;;;;;;;5054402;28;20218;-60
2023/06/13 13:07:23;;;;;;;11.68;4.50;;;;;;;;;;5053363;28;20277;-60
2023/06/13 13:09:48;;;;;;;9.60;5.22;;;;;;;;;;5035373;28;20212;-60
2023/06/13 13:12:14;;;;;;;11.90;4.90;;;;;;;;;;5033680;28;20212;-60
2023/06/13 13:14:39;;;;;;;6.03;4.40;;;;;;;;;;5034166;28;20200;-60
2023/06/13 13:17:05;;;;;;;9.55;4.78;;;;;;;;;;5032944;28;20224;-60
2023/06/13 13:19:31;;;;;;;10.20;4.72;;;;;;;;;;5034088;28;20236;-60
2023/06/13 13:21:57;;;;;;;7.65;4.43;;;;;;;;;;5034091;28;20219;-60
2023/06/13 13:24:23;;;;;;;8.15;4.50;;;;;;;;;;5032792;28;20224;-61
2023/06/13 13:26:50;;;;;;;9.73;4.82;;;;;;;;;;5033734;28;20223;-60
2023/06/13 13:29:16;;;;;;;5.70;4.32;;;;;;;;;;5033622;28;20204;-60
2023/06/13 13:31:41;;;;;;;6.20;4.30;;;;;;;;;;5033172;28;20290;-60
2023/06/13 13:34:08;;;;;;;9.70;5.13;;;;;;;;;;5033158;28;20219;-60
2023/06/13 13:36:34;;;;;;;6.90;4.57;;;;;;;;;;5033091;28;20215;-60
2023/06/13 13:39:02;;;;;;;9.65;5.00;;;;;;;;;;5032311;28;20224;-60
2023/06/13 13:41:32;;;;;;;27.83;5.57;;;;;;;;;;5029616;28;20762;-61
2023/06/13 13:43:57;;;;;;;25.40;5.95;;;;;;;;;;5026070;28;20216;-61
2023/06/13 13:46:22;;;;;;;9.68;4.50;;;;;;;;;;5031909;28;20681;-61
2023/06/13 13:48:48;;;;;;;375.65;33.75;;;;;;;;;;5032651;28;20237;-61
2023/06/13 13:51:13;;;;;;;31.33;6.43;;;;;;;;;;5031494;28;20246;-61
2023/06/13 13:53:38;;;;;;;9.43;4.40;;;;;;;;;;5032671;28;20659;-61
2023/06/13 13:56:04;;;;;;;8.60;4.47;;;;;;;;;;5030655;28;20705;-61
2023/06/13 13:58:29;;;;;;;12.45;4.72;;;;;;;;;;5022384;28;20587;-61
2023/06/13 14:00:57;;;;;;;7.47;4.65;;;;;;;;;;5034225;28;20234;-61
2023/06/13 14:03:22;;;;;;;6.80;4.63;;;;;;;;;;5032306;28;20214;-61
2023/06/13 14:05:48;;;;;;;7.90;4.15;;;;;;;;;;5031784;28;20215;-61
2023/06/13 14:08:14;;;;;;;8.20;4.68;;;;;;;;;;5037025;28;20215;-61
2023/06/13 14:10:39;;;;;;;8.57;3.90;;;;;;;;;;5052496;28;20221;-61
2023/06/13 14:13:05;;;;;;;11.52;5.03;;;;;;;;;;5037503;28;20232;-61
2023/06/13 14:15:31;;;;;;;7.57;4.47;;;;;;;;;;5032104;28;20212;-61
2023/06/13 14:17:56;;;;;;;6.65;4.00;;;;;;;;;;5031870;28;20742;-61
2023/06/13 14:20:21;;;;;;;11.40;4.30;;;;;;;;;;5031204;28;20227;-60
2023/06/13 14:22:47;;;;;;;8.32;4.32;;;;;;;;;;5032593;28;20207;-60
2023/06/13 14:25:12;;;;;;;6.97;4.50;;;;;;;;;;5032098;28;20281;-60
2023/06/13 14:27:37;;;;;;;6.38;4.35;;;;;;;;;;5031681;28;20222;-60
2023/06/13 14:30:04;;;;;;;10.32;4.68;;;;;;;;;;5031744;28;20216;-60
2023/06/13 14:32:29;;;;;;;6.32;4.50;;;;;;;;;;5032466;28;20310;-60